createdAt,value
2023-02-13T00:04:14.136Z,7.25
2023-02-13T00:09:17.901Z,7.24
2023-02-13T00:14:21.626Z,7.24
2023-02-13T00:19:26.760Z,7.25
2023-02-13T00:24:30.565Z,7.25
2023-02-13T00:29:34.356Z,7.25
2023-02-13T00:34:39.466Z,7.24
2023-02-13T00:39:45.404Z,7.21
2023-02-13T00:44:49.113Z,7.20
2023-02-13T00:49:54.200Z,7.20
2023-02-13T00:54:57.970Z,7.19
2023-02-13T01:00:01.754Z,7.21
2023-02-13T01:05:07.552Z,7.20
2023-02-13T01:10:11.962Z,7.18
2023-02-13T01:15:15.898Z,7.17
2023-02-13T01:20:21.479Z,7.18
2023-02-13T01:25:25.547Z,7.17
2023-02-13T01:30:33.149Z,7.19
2023-02-13T01:35:40.233Z,7.16
2023-02-13T01:40:47.774Z,7.16
2023-02-13T01:45:54.700Z,7.17
2023-02-13T01:51:04.169Z,7.12
2023-02-13T01:56:14.309Z,7.09
2023-02-13T02:01:18.745Z,7.09
2023-02-13T02:06:27.972Z,7.07
2023-02-13T02:11:38.851Z,7.06
2023-02-13T02:16:42.687Z,7.07
2023-02-13T02:22:02.596Z,7.06
2023-02-13T02:27:28.845Z,7.03
2023-02-13T02:33:04.247Z,7.00
2023-02-13T02:38:20.116Z,6.98
2023-02-13T02:43:41.529Z,6.91
2023-02-13T02:49:12.032Z,6.79
2023-02-13T02:54:41.172Z,6.67
2023-02-13T03:00:05.905Z,6.53
2023-02-13T03:05:37.585Z,6.39
2023-02-13T03:10:59.954Z,6.26
2023-02-13T03:16:22.491Z,6.14
2023-02-13T03:21:57.544Z,6.04
2023-02-13T03:27:09.577Z,5.91
2023-02-13T03:32:22.364Z,5.82
2023-02-13T03:37:48.737Z,5.71
2023-02-13T03:42:56.551Z,5.65
2023-02-13T03:48:09.591Z,5.60
2023-02-13T03:53:17.020Z,5.53
2023-02-13T03:58:53.990Z,5.42
2023-02-13T04:04:02.759Z,5.31
2023-02-13T04:09:08.005Z,5.23
2023-02-13T04:14:19.250Z,5.19
2023-02-13T04:19:24.926Z,5.20
2023-02-13T04:24:30.798Z,5.17
2023-02-13T04:29:34.522Z,5.12
2023-02-13T04:34:38.347Z,5.10
2023-02-13T04:39:43.457Z,5.07
2023-02-13T04:44:49.296Z,5.02
2023-02-13T04:49:53.082Z,5.00
2023-02-13T04:54:58.293Z,4.99
2023-02-13T05:00:02.104Z,4.97
2023-02-13T05:05:06.329Z,4.95
2023-02-13T05:10:13.269Z,4.94
2023-02-13T05:15:17.067Z,4.86
2023-02-13T05:20:21.630Z,4.88
2023-02-13T05:25:26.780Z,4.85
2023-02-13T05:30:30.654Z,4.81
2023-02-13T05:35:34.373Z,4.77
2023-02-13T05:40:39.546Z,4.69
2023-02-13T05:45:43.313Z,4.66
2023-02-13T05:50:47.740Z,4.62
2023-02-13T05:55:53.251Z,4.58
2023-02-13T06:00:59.066Z,4.52
2023-02-13T06:06:03.328Z,4.45
2023-02-13T06:11:09.131Z,4.43
2023-02-13T06:16:13.802Z,4.42
2023-02-13T06:21:17.595Z,4.39
2023-02-13T06:26:22.709Z,4.39
2023-02-13T06:31:26.632Z,4.33
2023-02-13T06:36:30.550Z,4.34
2023-02-13T06:41:35.600Z,4.31
2023-02-13T06:46:39.421Z,4.27
2023-02-13T06:51:43.213Z,4.25
2023-02-13T06:56:48.258Z,4.24
2023-02-13T07:01:52.149Z,4.24
2023-02-13T07:06:56.983Z,4.19
2023-02-13T07:12:03.891Z,4.17
2023-02-13T07:17:07.914Z,4.18
2023-02-13T07:22:11.742Z,4.17
2023-02-13T07:27:16.940Z,4.13
2023-02-13T07:32:20.703Z,4.13
2023-02-13T07:37:24.546Z,4.14
2023-02-13T07:42:29.624Z,4.11
2023-02-13T07:47:34.665Z,4.17
2023-02-13T07:52:38.935Z,4.19
2023-02-13T07:57:44.082Z,4.25
2023-02-13T08:02:48.324Z,4.26
2023-02-13T08:07:52.074Z,4.34
2023-02-13T08:12:57.177Z,4.39
2023-02-13T08:18:01.024Z,4.42
2023-02-13T08:23:05.716Z,4.47
2023-02-13T08:28:11.186Z,4.53
2023-02-13T08:33:14.923Z,4.61
2023-02-13T08:38:18.709Z,4.67
2023-02-13T08:43:23.811Z,4.66
2023-02-13T08:48:27.615Z,4.67
2023-02-13T08:53:31.383Z,4.72
2023-02-13T08:58:36.475Z,4.76
2023-02-13T09:03:40.223Z,4.86
2023-02-13T09:08:46.088Z,4.90
2023-02-13T09:13:54.179Z,4.93
2023-02-13T09:18:57.906Z,5.01
2023-02-13T09:24:01.808Z,5.11
2023-02-13T09:29:07.010Z,5.22
2023-02-13T09:34:10.800Z,5.30
2023-02-13T09:39:14.593Z,5.44
2023-02-13T09:44:37.535Z,5.61
2023-02-13T09:49:47.552Z,5.78
2023-02-13T09:54:51.343Z,5.90
2023-02-13T10:00:11.844Z,6.09
2023-02-13T10:05:29.466Z,6.35
2023-02-13T10:10:47.822Z,6.57
2023-02-13T10:15:56.894Z,6.77
2023-02-13T10:21:03.626Z,6.91
2023-02-13T10:26:13.487Z,7.21
2023-02-13T10:31:24.079Z,7.45
2023-02-13T10:36:30.635Z,7.70
2023-02-13T10:41:45.418Z,8.07
2023-02-13T10:47:01.346Z,8.34
2023-02-13T10:52:16.587Z,8.67
2023-02-13T10:57:27.206Z,9.13
2023-02-13T11:02:34.787Z,9.47
2023-02-13T11:07:39.656Z,9.93
2023-02-13T11:12:43.599Z,10.51
2023-02-13T11:17:48.863Z,11.10
2023-02-13T11:22:52.862Z,11.59
2023-02-13T11:28:09.755Z,12.29
2023-02-13T11:33:25.755Z,13.74
2023-02-13T11:38:29.465Z,15.14
2023-02-13T11:43:38.188Z,16.08
2023-02-13T11:48:44.893Z,16.87
2023-02-13T11:53:48.736Z,17.64
2023-02-13T11:59:03.356Z,18.29
2023-02-13T12:04:16.395Z,19.00
2023-02-13T12:09:20.157Z,18.65
2023-02-13T12:14:29.906Z,19.69
2023-02-13T12:19:42.182Z,20.40
2023-02-13T12:25:02.464Z,21.08
2023-02-13T12:30:42.321Z,20.83
2023-02-13T12:36:03.362Z,21.59
2023-02-13T12:41:19.528Z,22.13
2023-02-13T12:46:31.315Z,21.90
2023-02-13T12:51:50.134Z,21.67
2023-02-13T12:57:07.605Z,21.73
2023-02-13T13:02:44.407Z,22.21
2023-02-13T13:08:04.882Z,23.19
2023-02-13T13:13:21.248Z,22.32
2023-02-13T13:18:36.623Z,23.04
2023-02-13T13:23:47.526Z,23.10
2023-02-13T13:28:55.121Z,23.68
2023-02-13T13:34:01.635Z,23.66
2023-02-13T13:39:17.733Z,22.65
2023-02-13T13:44:39.015Z,22.74
2023-02-13T13:49:49.738Z,22.74
2023-02-13T13:54:56.731Z,23.51
2023-02-13T14:00:27.056Z,23.61
2023-02-13T14:05:32.791Z,23.89
2023-02-13T14:11:26.294Z,24.27
2023-02-13T14:16:41.266Z,23.13
2023-02-13T14:21:45.402Z,23.91
2023-02-13T14:27:05.157Z,24.38
2023-02-13T14:32:23.846Z,24.40
2023-02-13T14:37:36.667Z,24.43
2023-02-13T14:42:44.559Z,24.17
2023-02-13T14:47:53.412Z,24.54
2023-02-13T14:53:01.125Z,24.20
2023-02-13T14:58:13.940Z,24.38
2023-02-13T15:03:26.747Z,24.41
2023-02-13T15:08:35.509Z,24.59
2023-02-13T15:13:41.009Z,23.54
2023-02-13T15:18:49.071Z,21.83
2023-02-13T15:23:55.513Z,22.36
2023-02-13T15:29:02.219Z,22.54
2023-02-13T15:34:23.825Z,21.32
2023-02-13T15:39:29.129Z,18.99
2023-02-13T15:44:38.134Z,18.36
2023-02-13T15:49:46.270Z,18.00
2023-02-13T15:54:51.971Z,17.12
2023-02-13T15:59:58.469Z,16.69
2023-02-13T16:05:02.964Z,16.59
2023-02-13T16:10:16.155Z,16.09
2023-02-13T16:15:23.559Z,15.93
2023-02-13T16:20:29.038Z,15.80
2023-02-13T16:25:36.598Z,15.69
2023-02-13T16:30:43.233Z,15.45
2023-02-13T16:35:50.256Z,15.40
2023-02-13T16:40:55.475Z,15.18
2023-02-13T16:46:14.416Z,15.02
2023-02-13T16:51:26.134Z,14.72
2023-02-13T16:56:38.370Z,14.51
2023-02-13T17:01:43.451Z,14.30
2023-02-13T17:06:47.224Z,14.19
2023-02-13T17:11:54.694Z,14.06
2023-02-13T17:17:02.197Z,13.82
2023-02-13T17:22:06.508Z,13.60
2023-02-13T17:27:11.009Z,13.46
2023-02-13T17:32:19.480Z,13.24
2023-02-13T17:37:26.073Z,13.02
2023-02-13T17:42:31.387Z,12.81
2023-02-13T17:47:36.494Z,12.55
2023-02-13T17:52:40.947Z,12.38
2023-02-13T17:57:44.867Z,12.17
2023-02-13T18:02:51.375Z,11.97
2023-02-13T18:07:55.764Z,11.81
2023-02-13T18:13:04.495Z,11.63
2023-02-13T18:18:10.013Z,11.47
2023-02-13T18:23:14.489Z,11.22
2023-02-13T18:28:18.263Z,11.05
2023-02-13T18:33:23.459Z,10.88
2023-02-13T18:38:27.458Z,10.74
2023-02-13T18:43:31.488Z,10.55
2023-02-13T18:48:36.988Z,10.41
2023-02-13T18:53:41.048Z,10.27
2023-02-13T18:58:47.210Z,10.06
2023-02-13T19:03:54.455Z,9.92
2023-02-13T19:08:58.986Z,9.80
2023-02-13T19:14:03.395Z,9.67
2023-02-13T19:19:09.358Z,9.52
2023-02-13T19:24:15.338Z,9.41
2023-02-13T19:29:19.536Z,9.25
2023-02-13T19:34:24.762Z,9.15
2023-02-13T19:39:28.575Z,9.02
2023-02-13T19:44:32.486Z,8.88
2023-02-13T19:49:37.904Z,8.75
2023-02-13T19:54:41.691Z,8.61
2023-02-13T19:59:45.616Z,8.52
2023-02-13T20:04:50.888Z,8.45
2023-02-13T20:09:54.918Z,8.33
2023-02-13T20:14:58.867Z,8.19
2023-02-13T20:20:05.113Z,8.10
2023-02-13T20:25:09.894Z,8.02
2023-02-13T20:30:15.846Z,7.88
2023-02-13T20:35:21.637Z,7.80
2023-02-13T20:40:25.880Z,7.71
2023-02-13T20:45:32.065Z,7.63
2023-02-13T20:50:37.351Z,7.54
2023-02-13T20:55:41.073Z,7.46
2023-02-13T21:00:45.200Z,7.35
2023-02-13T21:05:50.729Z,7.31
2023-02-13T21:10:54.489Z,7.25
2023-02-13T21:16:05.376Z,7.18
2023-02-13T21:21:12.155Z,7.08
2023-02-13T21:26:17.555Z,6.99
2023-02-13T21:31:27.870Z,6.93
2023-02-13T21:36:34.654Z,6.88
2023-02-13T21:41:40.829Z,6.77
2023-02-13T21:46:45.721Z,6.69
2023-02-13T21:51:51.167Z,6.61
2023-02-13T21:56:54.899Z,6.56
2023-02-13T22:01:59.298Z,6.48
2023-02-13T22:07:04.472Z,6.39
2023-02-13T22:12:08.337Z,6.32
2023-02-13T22:17:12.095Z,6.31
2023-02-13T22:22:17.131Z,6.28
2023-02-13T22:27:20.861Z,6.18
2023-02-13T22:32:24.734Z,6.08
2023-02-13T22:37:29.823Z,6.02
2023-02-13T22:42:33.585Z,5.97
2023-02-13T22:47:37.405Z,5.90
2023-02-13T22:52:42.731Z,5.84
2023-02-13T22:57:46.968Z,5.78
2023-02-13T23:02:51.418Z,5.68
2023-02-13T23:07:56.604Z,5.67
2023-02-13T23:13:00.362Z,5.59
2023-02-13T23:18:14.571Z,5.55
2023-02-13T23:23:19.747Z,5.47
2023-02-13T23:28:23.510Z,5.39
2023-02-13T23:33:27.277Z,5.30
2023-02-13T23:38:32.336Z,5.24
2023-02-13T23:43:36.232Z,5.21
2023-02-13T23:48:39.954Z,5.10
2023-02-13T23:53:45.098Z,5.08
2023-02-13T23:58:48.913Z,5.00
